createdAt,value
2024-03-31T00:01:05.219Z,15.18
2024-03-31T00:03:31.967Z,15.11
2024-03-31T00:05:58.615Z,15.01
2024-03-31T00:08:25.917Z,14.89
2024-03-31T00:11:04.237Z,14.85
2024-03-31T00:13:30.903Z,14.86
2024-03-31T00:15:57.532Z,14.88
2024-03-31T00:18:24.258Z,14.92
2024-03-31T00:20:59.769Z,14.95
2024-03-31T00:23:26.465Z,14.96
2024-03-31T00:26:03.219Z,14.97
2024-03-31T00:28:30.114Z,14.98
2024-03-31T00:30:58.172Z,14.99
2024-03-31T00:33:25.696Z,14.99
2024-03-31T00:35:56.602Z,14.99
2024-03-31T00:38:24.527Z,14.98
2024-03-31T00:40:51.945Z,14.98
2024-03-31T00:43:18.596Z,14.97
2024-03-31T00:45:45.541Z,14.97
2024-03-31T00:48:12.216Z,14.95
2024-03-31T00:50:39.237Z,14.95
2024-03-31T00:53:05.899Z,14.94
2024-03-31T00:55:32.425Z,14.90
2024-03-31T00:57:59.478Z,14.87
2024-03-31T01:00:26.464Z,14.86
2024-03-31T01:02:53.224Z,14.84
2024-03-31T01:05:20.121Z,14.84
2024-03-31T01:07:47.615Z,14.84
2024-03-31T01:10:14.858Z,14.84
2024-03-31T01:12:41.672Z,14.83
2024-03-31T01:15:11.254Z,14.83
2024-03-31T01:17:37.885Z,14.81
2024-03-31T01:20:04.815Z,14.79
2024-03-31T01:22:31.788Z,14.78
2024-03-31T01:24:58.380Z,14.77
2024-03-31T01:27:26.074Z,14.76
2024-03-31T01:29:52.715Z,14.74
2024-03-31T01:32:19.534Z,14.72
2024-03-31T01:34:46.246Z,14.69
2024-03-31T01:37:12.886Z,14.68
2024-03-31T01:39:39.440Z,14.67
2024-03-31T01:42:06.014Z,14.67
2024-03-31T01:44:33.051Z,14.66
2024-03-31T01:46:59.639Z,14.65
2024-03-31T01:49:26.237Z,14.64
2024-03-31T01:51:53.652Z,14.63
2024-03-31T01:54:20.385Z,14.62
2024-03-31T01:56:46.991Z,14.60
2024-03-31T01:59:13.656Z,14.59
2024-03-31T02:01:40.192Z,14.59
2024-03-31T02:04:06.861Z,14.57
2024-03-31T02:06:33.470Z,14.57
2024-03-31T02:09:00.097Z,14.56
2024-03-31T02:11:26.620Z,14.56
2024-03-31T02:13:53.279Z,14.56
2024-03-31T02:16:21.978Z,14.56
2024-03-31T02:18:48.536Z,14.56
2024-03-31T02:21:15.161Z,14.56
2024-03-31T02:23:41.739Z,14.55
2024-03-31T02:26:08.412Z,14.54
2024-03-31T02:28:36.573Z,14.55
2024-03-31T02:31:03.783Z,14.55
2024-03-31T02:33:31.038Z,14.56
2024-03-31T02:35:57.673Z,14.56
2024-03-31T02:38:24.316Z,14.55
2024-03-31T02:40:51.059Z,14.55
2024-03-31T02:43:17.639Z,14.56
2024-03-31T02:45:47.634Z,14.57
2024-03-31T02:48:14.305Z,14.59
2024-03-31T02:50:40.954Z,14.60
2024-03-31T02:53:07.710Z,14.61
2024-03-31T02:55:34.375Z,14.63
2024-03-31T02:58:01.134Z,14.63
2024-03-31T03:00:27.700Z,14.64
2024-03-31T03:02:54.295Z,14.65
2024-03-31T03:05:21.110Z,14.66
2024-03-31T03:07:47.755Z,14.68
2024-03-31T03:10:14.440Z,14.67
2024-03-31T03:12:41.402Z,14.66
2024-03-31T03:15:08.978Z,14.66
2024-03-31T03:17:35.587Z,14.65
2024-03-31T03:20:02.339Z,14.62
2024-03-31T03:22:29.206Z,14.61
2024-03-31T03:24:56.084Z,14.58
2024-03-31T03:27:22.801Z,14.54
2024-03-31T03:29:53.313Z,14.50
2024-03-31T03:32:19.893Z,14.45
2024-03-31T03:34:47.932Z,14.38
2024-03-31T03:37:14.480Z,14.23
2024-03-31T03:39:42.374Z,14.07
2024-03-31T03:42:09.200Z,14.00
2024-03-31T03:44:36.446Z,13.97
2024-03-31T03:47:03.122Z,13.97
2024-03-31T03:49:29.844Z,13.98
2024-03-31T03:51:56.363Z,14.01
2024-03-31T03:54:22.928Z,14.02
2024-03-31T03:56:49.838Z,14.01
2024-03-31T03:59:16.417Z,13.99
2024-03-31T04:01:43.430Z,13.98
2024-03-31T04:04:09.978Z,13.98
2024-03-31T04:06:36.633Z,13.96
2024-03-31T04:09:03.387Z,13.93
2024-03-31T04:11:29.940Z,13.90
2024-03-31T04:13:56.858Z,13.90
2024-03-31T04:16:23.619Z,13.88
2024-03-31T04:18:52.269Z,13.87
2024-03-31T04:21:19.075Z,13.86
2024-03-31T04:23:45.984Z,13.87
2024-03-31T04:26:12.642Z,13.88
2024-03-31T04:28:39.535Z,13.90
2024-03-31T04:31:06.507Z,13.86
2024-03-31T04:33:33.604Z,13.78
2024-03-31T04:36:01.419Z,13.69
2024-03-31T04:38:28.543Z,13.66
2024-03-31T04:40:58.848Z,13.64
2024-03-31T04:43:25.431Z,13.63
2024-03-31T04:46:07.328Z,13.62
2024-03-31T04:48:35.334Z,13.64
2024-03-31T04:51:06.628Z,13.67
2024-03-31T04:53:34.650Z,13.71
2024-03-31T04:56:03.634Z,13.76
2024-03-31T04:58:31.097Z,13.85
2024-03-31T05:00:58.094Z,13.93
2024-03-31T05:03:26.803Z,14.00
2024-03-31T05:05:53.963Z,14.05
2024-03-31T05:08:20.871Z,14.11
2024-03-31T05:10:58.089Z,14.19
2024-03-31T05:13:29.072Z,14.26
2024-03-31T05:16:02.189Z,14.33
2024-03-31T05:18:29.709Z,14.41
2024-03-31T05:21:05.539Z,14.49
2024-03-31T05:23:33.796Z,14.56
2024-03-31T05:26:00.990Z,14.62
2024-03-31T05:28:28.570Z,14.68
2024-03-31T05:30:55.496Z,14.74
2024-03-31T05:33:22.601Z,14.80
2024-03-31T05:35:58.125Z,14.85
2024-03-31T05:38:27.560Z,14.89
2024-03-31T05:41:03.880Z,14.93
2024-03-31T05:43:30.909Z,14.96
2024-03-31T05:45:57.772Z,14.99
2024-03-31T05:48:26.843Z,15.00
2024-03-31T05:50:53.691Z,15.00
2024-03-31T05:53:23.162Z,15.00
2024-03-31T05:55:50.543Z,15.01
2024-03-31T05:58:17.374Z,15.02
2024-03-31T06:00:44.099Z,15.02
2024-03-31T06:03:15.058Z,15.05
2024-03-31T06:05:42.230Z,15.07
2024-03-31T06:08:09.008Z,15.10
2024-03-31T06:10:40.763Z,15.15
2024-03-31T06:13:07.783Z,15.20
2024-03-31T06:15:34.800Z,15.26
2024-03-31T06:18:01.503Z,15.31
2024-03-31T06:20:28.117Z,15.38
2024-03-31T06:22:55.072Z,15.45
2024-03-31T06:25:21.771Z,15.49
2024-03-31T06:27:49.384Z,15.52
2024-03-31T06:30:16.251Z,15.56
2024-03-31T06:32:42.878Z,15.59
2024-03-31T06:35:09.486Z,15.62
2024-03-31T06:37:36.265Z,15.64
2024-03-31T06:40:03.088Z,15.66
2024-03-31T06:42:31.068Z,15.67
2024-03-31T06:45:00.389Z,15.67
2024-03-31T06:47:27.515Z,15.67
2024-03-31T06:49:54.188Z,15.67
2024-03-31T06:52:20.775Z,15.66
2024-03-31T06:54:47.979Z,15.67
2024-03-31T06:57:14.607Z,15.66
2024-03-31T06:59:41.258Z,15.64
2024-03-31T07:02:08.256Z,15.63
2024-03-31T07:04:34.866Z,15.62
2024-03-31T07:07:01.714Z,15.61
2024-03-31T07:09:28.230Z,15.61
2024-03-31T07:11:55.121Z,15.60
2024-03-31T07:14:21.916Z,15.59
2024-03-31T07:16:48.896Z,15.60
2024-03-31T07:19:15.471Z,15.60
2024-03-31T07:21:42.097Z,15.60
2024-03-31T07:24:08.870Z,15.61
2024-03-31T07:26:35.487Z,15.62
2024-03-31T07:29:02.288Z,15.63
2024-03-31T07:31:29.388Z,15.63
2024-03-31T07:33:55.983Z,15.63
2024-03-31T07:36:22.776Z,15.62
2024-03-31T07:38:49.315Z,15.63
2024-03-31T07:41:15.934Z,15.65
2024-03-31T07:43:42.562Z,15.69
2024-03-31T07:46:09.204Z,15.75
2024-03-31T07:48:35.821Z,15.82
2024-03-31T07:51:02.471Z,15.90
2024-03-31T07:53:29.006Z,15.97
2024-03-31T07:55:59.645Z,16.01
2024-03-31T07:58:26.350Z,16.05
2024-03-31T08:00:55.529Z,16.10
2024-03-31T08:03:22.983Z,16.13
2024-03-31T08:05:49.712Z,16.18
2024-03-31T08:08:16.350Z,16.23
2024-03-31T08:10:44.316Z,16.26
2024-03-31T08:13:13.866Z,16.31
2024-03-31T08:15:43.280Z,16.34
2024-03-31T08:18:11.242Z,16.37
2024-03-31T08:20:37.783Z,16.39
2024-03-31T08:23:04.530Z,16.40
2024-03-31T08:25:31.702Z,16.40
2024-03-31T08:27:58.827Z,16.39
2024-03-31T08:30:25.638Z,16.37
2024-03-31T08:32:52.866Z,16.36
2024-03-31T08:35:19.468Z,16.32
2024-03-31T08:37:48.438Z,16.28
2024-03-31T08:40:15.932Z,16.25
2024-03-31T08:42:53.767Z,16.22
2024-03-31T08:45:22.971Z,16.22
2024-03-31T08:47:55.748Z,16.22
2024-03-31T08:50:22.704Z,16.21
2024-03-31T08:52:49.750Z,16.22
2024-03-31T08:55:16.368Z,16.26
2024-03-31T08:57:43.611Z,16.28
2024-03-31T09:00:11.418Z,16.32
2024-03-31T09:02:40.060Z,16.42
2024-03-31T09:05:07.080Z,16.59
2024-03-31T09:07:38.588Z,16.77
2024-03-31T09:10:07.172Z,16.98
2024-03-31T09:12:33.758Z,17.25
2024-03-31T09:15:03.665Z,17.48
2024-03-31T09:17:30.268Z,17.79
2024-03-31T09:19:56.853Z,18.14
2024-03-31T09:22:23.518Z,18.46
2024-03-31T09:24:50.142Z,18.63
2024-03-31T09:27:17.647Z,18.74
2024-03-31T09:29:44.289Z,18.80
2024-03-31T09:32:18.272Z,18.85
2024-03-31T09:34:45.942Z,18.85
2024-03-31T09:37:12.862Z,18.86
2024-03-31T09:39:41.301Z,18.85
2024-03-31T09:42:09.826Z,18.84
2024-03-31T09:44:44.430Z,18.89
2024-03-31T09:47:26.378Z,18.93
2024-03-31T09:50:19.800Z,18.98
2024-03-31T09:52:51.023Z,19.00
2024-03-31T09:55:25.374Z,18.97
2024-03-31T09:57:56.390Z,18.95
2024-03-31T10:00:23.868Z,18.90
2024-03-31T10:03:13.639Z,18.88
2024-03-31T10:05:41.895Z,18.90
2024-03-31T10:08:12.143Z,18.90
2024-03-31T10:10:41.901Z,18.88
2024-03-31T10:13:09.598Z,18.85
2024-03-31T10:15:37.391Z,18.81
2024-03-31T10:18:06.798Z,18.72
2024-03-31T10:20:33.346Z,18.65
2024-03-31T10:23:00.083Z,18.56
2024-03-31T10:25:29.166Z,18.44
2024-03-31T10:27:58.278Z,18.37
2024-03-31T10:30:28.178Z,18.30
2024-03-31T10:32:56.498Z,18.20
2024-03-31T10:35:24.437Z,18.11
2024-03-31T10:37:52.154Z,18.03
2024-03-31T10:40:20.691Z,17.94
2024-03-31T10:42:47.775Z,17.85
2024-03-31T10:45:16.543Z,17.75
2024-03-31T10:47:45.067Z,17.66
2024-03-31T10:50:12.853Z,17.58
2024-03-31T10:52:39.829Z,17.52
2024-03-31T10:55:11.009Z,17.46
2024-03-31T10:57:39.631Z,17.41
2024-03-31T11:00:08.901Z,17.36
2024-03-31T11:02:36.532Z,17.30
2024-03-31T11:05:09.029Z,17.25
2024-03-31T11:07:37.506Z,17.20
2024-03-31T11:10:07.495Z,17.13
2024-03-31T11:12:36.225Z,17.11
2024-03-31T11:15:02.892Z,17.10
2024-03-31T11:17:31.867Z,17.11
2024-03-31T11:20:00.744Z,17.16
2024-03-31T11:22:27.839Z,17.25
2024-03-31T11:24:54.648Z,17.43
2024-03-31T11:27:21.650Z,17.75
2024-03-31T11:29:49.150Z,17.92
2024-03-31T11:32:17.529Z,18.16
2024-03-31T11:34:48.127Z,18.44
2024-03-31T11:37:15.070Z,18.67
2024-03-31T11:39:41.667Z,18.89
2024-03-31T11:42:08.993Z,19.28
2024-03-31T11:44:37.547Z,19.54
2024-03-31T11:47:05.762Z,19.46
2024-03-31T11:49:34.427Z,19.34
2024-03-31T11:52:01.672Z,19.23
2024-03-31T11:54:29.771Z,19.15
2024-03-31T11:56:56.744Z,19.08
2024-03-31T11:59:24.784Z,18.98
2024-03-31T12:01:58.785Z,18.92
2024-03-31T12:04:27.344Z,18.86
2024-03-31T12:06:57.330Z,18.82
2024-03-31T12:09:24.646Z,18.80
2024-03-31T12:11:51.633Z,18.74
2024-03-31T12:14:19.329Z,18.72
2024-03-31T12:16:46.515Z,18.78
2024-03-31T12:19:14.259Z,18.98
2024-03-31T12:21:41.801Z,19.15
2024-03-31T12:24:09.288Z,19.30
2024-03-31T12:26:36.143Z,19.65
2024-03-31T12:29:03.383Z,19.87
2024-03-31T12:31:30.167Z,20.06
2024-03-31T12:33:56.891Z,20.34
2024-03-31T12:36:23.514Z,20.58
2024-03-31T12:38:50.245Z,20.71
2024-03-31T12:41:18.286Z,20.90
2024-03-31T12:43:45.404Z,21.20
2024-03-31T12:46:15.907Z,21.25
2024-03-31T12:48:45.215Z,21.27
2024-03-31T12:51:22.806Z,21.19
2024-03-31T12:53:50.007Z,21.18
2024-03-31T12:56:17.958Z,21.31
2024-03-31T12:58:44.737Z,21.41
2024-03-31T13:01:11.375Z,21.40
2024-03-31T13:03:41.221Z,21.32
2024-03-31T13:06:12.609Z,21.16
2024-03-31T13:08:44.398Z,21.01
2024-03-31T13:11:12.650Z,20.90
2024-03-31T13:13:39.366Z,20.77
2024-03-31T13:16:06.095Z,20.57
2024-03-31T13:18:32.803Z,20.36
2024-03-31T13:20:59.469Z,20.18
2024-03-31T13:23:27.601Z,20.07
2024-03-31T13:25:54.781Z,20.01
2024-03-31T13:28:21.785Z,20.01
2024-03-31T13:30:48.398Z,20.04
2024-03-31T13:33:15.049Z,20.07
2024-03-31T13:35:41.537Z,20.08
2024-03-31T13:38:08.121Z,20.07
2024-03-31T13:40:35.690Z,20.05
2024-03-31T13:43:02.268Z,20.04
2024-03-31T13:45:30.608Z,20.05
2024-03-31T13:47:57.227Z,20.07
2024-03-31T13:50:23.792Z,20.11
2024-03-31T13:52:50.400Z,20.23
2024-03-31T13:55:17.086Z,20.29
2024-03-31T13:57:43.730Z,20.26
2024-03-31T14:00:11.626Z,20.21
2024-03-31T14:02:40.843Z,20.14
2024-03-31T14:05:07.357Z,20.05
2024-03-31T14:07:34.015Z,19.99
2024-03-31T14:10:00.705Z,19.98
2024-03-31T14:12:27.266Z,19.94
2024-03-31T14:14:53.828Z,19.91
2024-03-31T14:17:20.538Z,19.93
2024-03-31T14:19:49.286Z,19.96
2024-03-31T14:22:15.888Z,20.02
2024-03-31T14:24:42.484Z,20.05
2024-03-31T14:27:09.054Z,20.06
2024-03-31T14:29:35.604Z,20.03
2024-03-31T14:32:02.132Z,19.93
2024-03-31T14:34:28.752Z,19.81
2024-03-31T14:36:57.297Z,19.70
2024-03-31T14:39:26.362Z,19.64
2024-03-31T14:41:52.994Z,19.61
2024-03-31T14:44:19.529Z,19.59
2024-03-31T14:46:46.093Z,19.58
2024-03-31T14:49:12.659Z,19.56
2024-03-31T14:51:39.193Z,19.54
2024-03-31T14:54:06.032Z,19.50
2024-03-31T14:56:32.680Z,19.45
2024-03-31T14:58:59.201Z,19.37
2024-03-31T15:01:26.058Z,19.30
2024-03-31T15:03:52.542Z,19.22
2024-03-31T15:06:19.086Z,19.17
2024-03-31T15:08:45.728Z,19.14
2024-03-31T15:11:12.282Z,19.11
2024-03-31T15:13:39.174Z,19.09
2024-03-31T15:16:05.849Z,19.06
2024-03-31T15:18:32.498Z,19.03
2024-03-31T15:20:59.038Z,18.98
2024-03-31T15:23:25.607Z,18.93
2024-03-31T15:25:52.233Z,18.89
2024-03-31T15:28:18.812Z,18.87
2024-03-31T15:31:03.620Z,18.84
2024-03-31T15:33:30.234Z,18.81
2024-03-31T15:35:56.833Z,18.79
2024-03-31T15:38:23.407Z,18.77
2024-03-31T15:40:50.018Z,18.75
2024-03-31T15:43:16.608Z,18.74
2024-03-31T15:45:54.449Z,18.71
2024-03-31T15:48:23.426Z,18.69
2024-03-31T15:50:53.653Z,18.65
2024-03-31T15:53:21.178Z,18.63
2024-03-31T15:55:48.720Z,18.60
2024-03-31T15:58:18.181Z,18.59
2024-03-31T16:00:45.530Z,18.56
2024-03-31T16:03:13.559Z,18.54
2024-03-31T16:05:46.452Z,18.52
2024-03-31T16:08:13.306Z,18.49
2024-03-31T16:10:44.171Z,18.46
2024-03-31T16:13:10.818Z,18.43
2024-03-31T16:15:37.482Z,18.40
2024-03-31T16:18:04.340Z,18.39
2024-03-31T16:20:30.888Z,18.37
2024-03-31T16:22:57.570Z,18.35
2024-03-31T16:25:24.194Z,18.34
2024-03-31T16:27:50.731Z,18.32
2024-03-31T16:30:17.353Z,18.30
2024-03-31T16:32:43.955Z,18.28
2024-03-31T16:35:10.479Z,18.26
2024-03-31T16:37:37.023Z,18.24
2024-03-31T16:40:03.966Z,18.21
2024-03-31T16:42:30.475Z,18.19
2024-03-31T16:44:57.018Z,18.16
2024-03-31T16:47:23.597Z,18.13
2024-03-31T16:49:50.299Z,18.11
2024-03-31T16:52:17.256Z,18.09
2024-03-31T16:54:44.347Z,18.06
2024-03-31T16:57:10.908Z,18.02
2024-03-31T16:59:37.520Z,17.98
2024-03-31T17:02:05.078Z,17.94
2024-03-31T17:04:31.608Z,17.92
2024-03-31T17:06:58.195Z,17.90
2024-03-31T17:09:26.147Z,17.88
2024-03-31T17:11:52.862Z,17.83
2024-03-31T17:14:19.392Z,17.79
2024-03-31T17:16:46.933Z,17.75
2024-03-31T17:19:15.025Z,17.70
2024-03-31T17:21:45.039Z,17.65
2024-03-31T17:24:13.101Z,17.57
2024-03-31T17:26:39.734Z,17.50
2024-03-31T17:29:09.561Z,17.44
2024-03-31T17:31:36.663Z,17.39
2024-03-31T17:34:03.822Z,17.36
2024-03-31T17:36:33.344Z,17.33
2024-03-31T17:38:59.951Z,17.27
2024-03-31T17:41:27.481Z,17.18
2024-03-31T17:43:54.322Z,17.10
2024-03-31T17:46:20.969Z,16.98
2024-03-31T17:48:47.825Z,16.83
2024-03-31T17:51:16.033Z,16.73
2024-03-31T17:53:45.789Z,16.69
2024-03-31T17:56:14.309Z,16.66
2024-03-31T17:58:41.303Z,16.64
2024-03-31T18:01:10.204Z,16.64
2024-03-31T18:03:40.649Z,16.63
2024-03-31T18:06:08.116Z,16.60
2024-03-31T18:08:36.334Z,16.57
2024-03-31T18:11:05.274Z,16.55
2024-03-31T18:13:33.830Z,16.53
2024-03-31T18:16:04.377Z,16.50
2024-03-31T18:18:35.673Z,16.47
2024-03-31T18:21:09.475Z,16.43
2024-03-31T18:23:37.603Z,16.39
2024-03-31T18:26:05.409Z,16.35
2024-03-31T18:28:32.914Z,16.32
2024-03-31T18:31:00.359Z,16.29
2024-03-31T18:33:27.984Z,16.28
2024-03-31T18:35:58.565Z,16.27
2024-03-31T18:38:34.695Z,16.25
2024-03-31T18:41:02.569Z,16.24
2024-03-31T18:43:33.726Z,16.22
2024-03-31T18:46:03.131Z,16.21
2024-03-31T18:48:30.241Z,16.20
2024-03-31T18:51:00.175Z,16.20
2024-03-31T18:53:26.839Z,16.19
2024-03-31T18:55:55.237Z,16.18
2024-03-31T18:58:22.611Z,16.19
2024-03-31T19:00:51.666Z,16.18
2024-03-31T19:03:18.319Z,16.15
2024-03-31T19:05:44.892Z,16.13
2024-03-31T19:08:11.542Z,16.12
2024-03-31T19:10:38.435Z,16.10
2024-03-31T19:13:05.580Z,16.09
2024-03-31T19:15:32.263Z,16.07
2024-03-31T19:17:59.376Z,16.07
2024-03-31T19:20:26.144Z,16.08
2024-03-31T19:22:52.986Z,16.06
2024-03-31T19:25:19.840Z,16.05
2024-03-31T19:27:47.467Z,16.06
2024-03-31T19:30:33.507Z,16.08
2024-03-31T19:33:00.113Z,16.06
2024-03-31T19:35:26.792Z,16.07
2024-03-31T19:37:55.665Z,16.07
2024-03-31T19:40:22.303Z,16.08
2024-03-31T19:42:48.828Z,16.09
2024-03-31T19:45:15.647Z,16.09
2024-03-31T19:47:46.857Z,16.08
2024-03-31T19:50:13.552Z,16.07
2024-03-31T19:52:40.881Z,16.07
2024-03-31T19:55:07.489Z,16.06
2024-03-31T19:57:34.606Z,16.07
2024-03-31T20:00:01.314Z,16.06
2024-03-31T20:02:28.014Z,16.06
2024-03-31T20:04:54.651Z,16.06
2024-03-31T20:07:21.239Z,16.07
2024-03-31T20:09:47.901Z,16.07
2024-03-31T20:12:14.555Z,16.09
2024-03-31T20:14:41.077Z,16.09
2024-03-31T20:17:07.698Z,16.09
2024-03-31T20:19:34.418Z,16.08
2024-03-31T20:22:01.059Z,16.09
2024-03-31T20:24:27.608Z,16.08
2024-03-31T20:26:54.179Z,16.08
2024-03-31T20:29:20.711Z,16.08
2024-03-31T20:31:47.990Z,16.08
2024-03-31T20:34:14.629Z,16.09
2024-03-31T20:36:41.258Z,16.10
2024-03-31T20:39:07.872Z,16.11
2024-03-31T20:41:34.677Z,16.12
2024-03-31T20:44:01.419Z,16.12
2024-03-31T20:46:27.994Z,16.10
2024-03-31T20:48:54.559Z,16.11
2024-03-31T20:51:22.019Z,16.12
2024-03-31T20:53:48.817Z,16.12
2024-03-31T20:56:15.766Z,16.13
2024-03-31T20:58:42.489Z,16.14
2024-03-31T21:01:15.615Z,16.14
2024-03-31T21:03:44.554Z,16.15
2024-03-31T21:06:15.806Z,16.15
2024-03-31T21:08:43.293Z,16.17
2024-03-31T21:11:20.935Z,16.18
2024-03-31T21:13:51.093Z,16.19
2024-03-31T21:16:19.928Z,16.20
2024-03-31T21:18:48.298Z,16.19
2024-03-31T21:21:22.703Z,16.21
2024-03-31T21:23:50.243Z,16.22
2024-03-31T21:26:18.073Z,16.25
2024-03-31T21:28:45.669Z,16.26
2024-03-31T21:31:13.546Z,16.28
2024-03-31T21:33:41.527Z,16.28
2024-03-31T21:36:20.558Z,16.29
2024-03-31T21:38:51.611Z,16.30
2024-03-31T21:41:19.524Z,16.31
2024-03-31T21:43:47.550Z,16.31
2024-03-31T21:46:15.907Z,16.32
2024-03-31T21:48:43.470Z,16.33
2024-03-31T21:51:12.142Z,16.34
2024-03-31T21:53:40.512Z,16.35
2024-03-31T21:56:10.034Z,16.36
2024-03-31T21:58:39.056Z,16.38
2024-03-31T22:01:10.028Z,16.39
2024-03-31T22:03:36.829Z,16.40
2024-03-31T22:06:03.907Z,16.40
2024-03-31T22:08:31.293Z,16.40
2024-03-31T22:11:03.150Z,16.40
2024-03-31T22:13:30.280Z,16.40
2024-03-31T22:16:00.530Z,16.39
2024-03-31T22:18:29.751Z,16.38
2024-03-31T22:20:57.665Z,16.38
2024-03-31T22:23:24.584Z,16.38
2024-03-31T22:25:51.468Z,16.39
2024-03-31T22:28:18.342Z,16.38
2024-03-31T22:30:45.358Z,16.37
2024-03-31T22:33:12.760Z,16.37
2024-03-31T22:35:43.067Z,16.36
2024-03-31T22:38:09.903Z,16.35
2024-03-31T22:40:36.554Z,16.34
2024-03-31T22:43:03.239Z,16.32
2024-03-31T22:45:29.844Z,16.32
2024-03-31T22:47:56.895Z,16.32
2024-03-31T22:50:23.505Z,16.32
2024-03-31T22:52:50.162Z,16.32
2024-03-31T22:55:18.912Z,16.31
2024-03-31T22:57:47.510Z,16.30
2024-03-31T23:00:14.858Z,16.30
2024-03-31T23:02:41.476Z,16.31
2024-03-31T23:05:08.236Z,16.32
2024-03-31T23:07:34.988Z,16.32
2024-03-31T23:10:08.413Z,16.32
2024-03-31T23:12:35.883Z,16.32
2024-03-31T23:15:03.569Z,16.33
2024-03-31T23:17:30.128Z,16.33
2024-03-31T23:19:56.849Z,16.32
2024-03-31T23:22:24.031Z,16.29
2024-03-31T23:24:50.761Z,16.27
2024-03-31T23:27:17.384Z,16.25
2024-03-31T23:29:44.115Z,16.22
2024-03-31T23:32:10.667Z,16.21
2024-03-31T23:34:37.193Z,16.20
2024-03-31T23:37:06.035Z,16.20
2024-03-31T23:39:32.811Z,16.21
2024-03-31T23:41:59.812Z,16.22
2024-03-31T23:44:26.388Z,16.23
2024-03-31T23:46:53.080Z,16.24
2024-03-31T23:49:20.637Z,16.25
2024-03-31T23:51:47.261Z,16.25
2024-03-31T23:54:13.793Z,16.26
2024-03-31T23:56:40.409Z,16.28
2024-03-31T23:59:07.064Z,16.28
